Time;durP1;ratioP1;P1;durP2;ratioP2;P2;SDS_P1;SDS_P2;PMS_P1;PMS_P2;Temp;Humidity;BMP_temperature;BMP_pressure;BME280_temperature;BME280_humidity;BME280_pressure;Samples;Min_cycle;Max_cycle;Signal;HPM_P1;HPM_P2
2023/04/11 07:27:59;;;;;;;9.32;2.03;;;;;;;7.13;85.46;96447.44;2091872;28;20574;-62
2023/04/11 07:29:51;;;;;;;7.10;1.80;;;;;;;7.48;85.40;96452.31;2080701;28;20572;-64
2023/04/11 07:31:43;;;;;;;6.18;1.60;;;;;;;7.32;83.49;96460.63;2082672;28;20581;-61
2023/04/11 07:32:45;;;;;;;9.75;1.27;;;;;;;7.39;83.80;96463.00;2082607;28;20226;-61
2023/04/11 07:33:47;;;;;;;6.82;1.60;;;;;;;7.51;83.86;96455.63;2078712;28;20222;-61
2023/04/11 07:34:49;;;;;;;6.70;2.00;;;;;;;7.63;85.22;96464.75;2073162;28;20221;-61
2023/04/11 07:35:51;;;;;;;8.57;1.75;;;;;;;7.69;85.50;96461.09;2070156;28;20228;-61
2023/04/11 07:37:57;;;;;;;15.48;1.70;;;;;;;7.47;83.50;96464.44;2084666;28;20592;-61
2023/04/11 07:38:59;;;;;;;7.22;2.25;;;;;;;7.63;83.75;96456.97;2075993;28;20213;-61
2023/04/11 07:40:00;;;;;;;14.55;1.70;;;;;;;7.71;83.20;96455.81;2075604;28;20237;-61
2023/04/11 07:41:03;;;;;;;12.55;2.20;;;;;;;7.99;83.29;96455.69;2076996;28;20563;-61
2023/04/11 07:42:04;;;;;;;8.07;1.95;;;;;;;8.05;81.45;96441.56;2075200;28;20291;-61
2023/04/11 07:43:06;;;;;;;5.95;1.45;;;;;;;8.18;81.30;96455.81;2075790;28;20840;-61
2023/04/11 07:46:49;;;;;;;5.50;1.52;;;;;;;8.01;81.87;96454.72;2084125;28;21040;-61
2023/04/11 07:47:50;;;;;;;8.00;1.88;;;;;;;8.33;81.81;96470.00;2077803;28;20208;-63
2023/04/11 07:48:52;;;;;;;6.35;1.90;;;;;;;8.47;81.96;96469.50;2076955;28;20189;-63
2023/04/11 07:49:53;;;;;;;7.95;2.35;;;;;;;8.39;80.99;96474.94;2078574;28;20252;-63
2023/04/11 07:50:55;;;;;;;10.80;2.58;;;;;;;8.54;80.83;96464.91;2079124;28;20218;-63
2023/04/11 07:51:56;;;;;;;6.85;2.10;;;;;;;8.44;79.73;96461.75;2078251;28;20213;-63
2023/04/11 07:52:58;;;;;;;8.55;1.95;;;;;;;8.54;81.20;96449.28;2074776;28;20193;-63
2023/04/11 07:53:59;;;;;;;8.52;3.40;;;;;;;8.88;80.07;96461.78;2077866;28;20726;-63
2023/04/11 07:55:01;;;;;;;12.73;2.78;;;;;;;8.93;78.59;96449.41;2075349;28;20222;-63
2023/04/11 07:56:03;;;;;;;6.05;1.88;;;;;;;9.22;78.72;96449.09;2077014;28;20846;-64
2023/04/11 07:57:05;;;;;;;9.80;2.05;;;;;;;9.07;77.03;96459.25;2075069;28;20204;-64
2023/04/11 07:58:07;;;;;;;9.30;1.90;;;;;;;9.09;76.92;96464.41;2076655;28;20224;-63
2023/04/11 07:59:08;;;;;;;9.02;1.88;;;;;;;8.89;76.55;96465.22;2076948;28;20400;-63
2023/04/11 08:00:18;;;;;;;3.65;1.45;;;;;;;9.08;76.18;96466.19;2077254;28;20208;-63
2023/04/11 08:01:21;;;;;;;6.35;1.80;;;;;;;9.15;75.75;96470.22;2078550;28;20621;-64
2023/04/11 08:02:23;;;;;;;12.45;2.30;;;;;;;9.26;74.22;96458.50;2078614;28;20830;-63
2023/04/11 08:03:25;;;;;;;7.70;1.70;;;;;;;9.09;75.83;96464.41;2077180;28;20201;-63
2023/04/11 08:04:34;;;;;;;12.18;3.03;;;;;;;8.90;76.71;96459.97;2078249;28;20286;-63
2023/04/11 08:05:36;;;;;;;8.38;2.92;;;;;;;9.03;76.74;96465.53;2073706;28;20212;-63
2023/04/11 08:06:38;;;;;;;8.48;2.20;;;;;;;8.90;74.58;96467.78;2072431;28;20311;-64
2023/04/11 08:07:40;;;;;;;10.60;1.98;;;;;;;8.67;75.57;96468.69;2074961;28;20374;-64
2023/04/11 08:08:42;;;;;;;7.10;1.45;;;;;;;8.53;76.39;96476.22;2075693;28;20201;-64
2023/04/11 08:09:43;;;;;;;15.18;3.55;;;;;;;8.60;77.33;96480.28;2080538;28;20595;-63
2023/04/11 08:10:45;;;;;;;9.18;2.00;;;;;;;8.62;76.72;96481.03;2084632;28;20362;-63
2023/04/11 08:11:46;;;;;;;12.00;3.22;;;;;;;8.81;77.07;96476.81;2074863;28;20209;-64
2023/04/11 08:12:48;;;;;;;18.10;3.67;;;;;;;8.83;77.19;96482.78;2075575;28;20680;-63
2023/04/11 08:13:50;;;;;;;13.52;2.35;;;;;;;8.84;76.34;96481.06;2077124;28;20442;-63
2023/04/11 08:14:52;;;;;;;7.78;2.10;;;;;;;8.93;77.24;96480.66;2076411;28;20594;-63
2023/04/11 08:15:53;;;;;;;9.77;2.60;;;;;;;8.68;76.78;96475.59;2078202;28;20202;-63
2023/04/11 08:16:54;;;;;;;10.32;1.88;;;;;;;8.43;73.68;96467.88;2070096;28;20201;-63
2023/04/11 08:17:56;;;;;;;14.38;1.80;;;;;;;8.29;74.51;96478.81;2077906;28;20558;-63
2023/04/11 08:18:57;;;;;;;11.20;2.00;;;;;;;8.34;75.96;96476.88;2076459;28;20727;-63
2023/04/11 08:19:59;;;;;;;15.18;2.63;;;;;;;8.44;75.17;96488.66;2078245;28;20318;-63
2023/04/11 08:21:02;;;;;;;11.23;2.00;;;;;;;8.45;75.60;96492.94;2077698;28;20232;-63
2023/04/11 08:22:04;;;;;;;10.75;1.98;;;;;;;8.45;75.51;96490.31;2077574;28;20239;-63
2023/04/11 08:23:07;;;;;;;11.70;2.60;;;;;;;8.39;75.15;96474.94;2078713;28;20208;-63
2023/04/11 08:24:08;;;;;;;8.85;1.75;;;;;;;8.73;74.43;96484.06;2076240;28;20196;-63
2023/04/11 08:25:11;;;;;;;9.57;2.10;;;;;;;8.53;73.88;96491.81;2079358;28;20197;-63
2023/04/11 08:26:12;;;;;;;9.77;2.30;;;;;;;8.49;74.64;96493.69;2078491;28;20209;-63
2023/04/11 08:27:14;;;;;;;8.15;2.30;;;;;;;8.43;74.90;96488.69;2077767;28;20197;-63
2023/04/11 08:28:15;;;;;;;7.93;1.85;;;;;;;8.48;74.75;96476.38;2079809;28;20288;-63
2023/04/11 08:29:17;;;;;;;10.55;1.85;;;;;;;8.70;74.12;96484.22;2076961;28;20229;-63
2023/04/11 08:30:19;;;;;;;7.95;1.77;;;;;;;8.65;73.41;96479.16;2078777;28;20192;-63
2023/04/11 08:31:21;;;;;;;10.13;1.70;;;;;;;8.82;72.05;96483.72;2080183;28;20198;-64
2023/04/11 08:32:24;;;;;;;12.73;1.38;;;;;;;8.57;71.79;96473.44;2075943;28;20206;-63
2023/04/11 08:33:26;;;;;;;15.43;1.88;;;;;;;8.95;72.65;96485.81;2075687;28;20243;-63
2023/04/11 08:34:27;;;;;;;12.43;1.80;;;;;;;9.46;72.23;96492.38;2076572;28;20236;-63
2023/04/11 08:35:29;;;;;;;10.98;1.60;;;;;;;9.48;72.22;96495.78;2079024;28;20608;-63
2023/04/11 08:36:30;;;;;;;10.75;1.90;;;;;;;9.32;70.74;96487.75;2080140;28;20219;-63
2023/04/11 08:37:32;;;;;;;4.57;1.38;;;;;;;9.26;70.67;96480.19;2077496;28;20196;-64
2023/04/11 08:38:35;;;;;;;2.50;1.02;;;;;;;9.10;70.03;96485.22;2077776;28;20216;-63
2023/04/11 08:39:36;;;;;;;8.40;1.45;;;;;;;8.94;71.28;96489.34;2070527;28;20245;-62
2023/04/11 08:40:38;;;;;;;11.95;1.98;;;;;;;8.76;71.18;96473.56;2069411;28;20461;-63
2023/04/11 08:41:40;;;;;;;4.53;1.25;;;;;;;8.86;71.50;96480.97;2071114;28;20656;-63
2023/04/11 08:42:43;;;;;;;12.05;2.03;;;;;;;8.80;71.14;96493.34;2070358;28;20659;-62
2023/04/11 08:43:46;;;;;;;8.13;1.40;;;;;;;8.94;71.25;96487.56;2071989;28;20210;-62
2023/04/11 08:44:53;;;;;;;7.85;1.67;;;;;;;8.76;70.28;96490.91;2068162;28;20229;-61
2023/04/11 08:45:55;;;;;;;5.88;1.40;;;;;;;8.87;70.78;96488.72;2074672;28;20197;-61
2023/04/11 08:46:57;;;;;;;5.18;1.48;;;;;;;8.69;69.77;96492.09;2076281;28;20240;-61
2023/04/11 08:47:59;;;;;;;8.23;1.45;;;;;;;8.48;69.65;96489.38;2075466;28;20212;-61
2023/04/11 08:49:00;;;;;;;9.95;1.60;;;;;;;8.68;71.64;96491.22;2075591;28;20213;-61
2023/04/11 08:50:03;;;;;;;5.13;1.55;;;;;;;8.81;70.67;96491.56;2075808;28;20224;-61
2023/04/11 08:51:05;;;;;;;12.27;1.40;;;;;;;8.87;70.46;96482.69;2071492;28;20210;-61
2023/04/11 08:52:06;;;;;;;7.15;1.83;;;;;;;8.92;70.39;96488.56;2077790;28;20260;-61
2023/04/11 08:53:08;;;;;;;6.60;1.45;;;;;;;8.88;70.64;96485.22;2077920;28;20208;-61
2023/04/11 08:54:11;;;;;;;7.75;1.60;;;;;;;9.01;71.78;96495.97;2078237;28;20197;-62
2023/04/11 08:55:12;;;;;;;8.93;2.20;;;;;;;9.05;71.91;96494.09;2078195;28;20308;-61
2023/04/11 08:56:15;;;;;;;7.35;1.17;;;;;;;8.93;70.84;96491.09;2076649;28;20216;-62
2023/04/11 08:57:25;;;;;;;8.85;1.40;;;;;;;8.95;70.13;96501.44;2077526;28;20204;-62
2023/04/11 08:58:26;;;;;;;6.53;1.25;;;;;;;9.14;69.83;96496.31;2071635;28;20234;-61
2023/04/11 08:59:28;;;;;;;6.95;1.83;;;;;;;8.97;68.88;96494.41;2069776;28;20287;-63
2023/04/11 09:00:31;;;;;;;6.05;1.67;;;;;;;8.90;69.07;96490.34;2069779;28;20207;-61
2023/04/11 09:01:35;;;;;;;7.63;1.50;;;;;;;9.09;69.53;96500.88;2072371;28;20887;-61
2023/04/11 09:02:56;;;;;;;5.05;1.38;;;;;;;9.35;68.66;96480.72;2074104;28;20256;-61
2023/04/11 09:03:59;;;;;;;5.70;1.45;;;;;;;9.30;68.26;96483.50;2073044;28;20197;-61
2023/04/11 09:05:01;;;;;;;5.05;1.48;;;;;;;9.29;68.59;96487.03;2071800;28;20264;-61
2023/04/11 09:06:09;;;;;;;6.18;1.52;;;;;;;9.08;68.26;96480.97;2071758;28;20687;-61
2023/04/11 09:07:11;;;;;;;4.63;1.50;;;;;;;9.11;69.17;96486.88;2072441;28;20218;-61
2023/04/11 09:08:14;;;;;;;5.22;1.50;;;;;;;9.16;69.09;96481.47;2072443;28;20248;-61
2023/04/11 09:09:28;;;;;;;7.93;1.70;;;;;;;8.92;68.82;96483.34;2071145;28;20213;-62
2023/04/11 09:10:31;;;;;;;9.60;1.75;;;;;;;9.06;70.52;96482.78;2069470;28;20244;-62
2023/04/11 09:11:50;;;;;;;12.90;1.85;;;;;;;9.17;69.34;96495.34;2067832;28;20209;-61
2023/04/11 09:12:53;;;;;;;6.00;1.40;;;;;;;9.25;67.89;96477.66;2071265;28;20240;-61
2023/04/11 09:14:08;;;;;;;5.35;1.50;;;;;;;9.47;67.78;96498.41;2072282;28;20198;-62
2023/04/11 09:15:39;;;;;;;7.93;1.90;;;;;;;9.41;68.20;96485.69;2070935;28;20243;-62
2023/04/11 09:17:03;;;;;;;5.60;1.50;;;;;;;9.43;68.48;96495.13;2068256;28;20262;-62
2023/04/11 09:18:04;;;;;;;5.38;1.45;;;;;;;9.68;68.43;96488.00;2072397;28;20229;-62
2023/04/11 09:19:22;;;;;;;12.23;1.77;;;;;;;9.24;67.12;96462.91;2071706;28;20229;-62
2023/04/11 09:20:30;;;;;;;4.40;1.50;;;;;;;9.39;67.17;96493.53;2072121;28;20198;-61
2023/04/11 09:21:47;;;;;;;11.05;1.60;;;;;;;9.41;67.18;96485.69;2071463;28;20272;-61
2023/04/11 09:22:49;;;;;;;10.00;1.45;;;;;;;9.60;66.92;96494.38;2072506;28;20208;-61
2023/04/11 09:23:51;;;;;;;4.43;1.70;;;;;;;9.90;67.47;96485.28;2073255;28;20197;-61
2023/04/11 09:25:02;;;;;;;5.53;1.48;;;;;;;10.15;66.00;96494.63;2072419;28;20232;-62
2023/04/11 09:26:08;;;;;;;4.43;1.30;;;;;;;10.15;66.00;96500.69;2072204;28;20209;-61
2023/04/11 09:27:15;;;;;;;5.13;1.40;;;;;;;10.02;65.92;96504.75;2072842;28;20217;-61
2023/04/11 09:28:16;;;;;;;6.85;1.27;;;;;;;9.91;67.00;96502.63;2071623;28;20200;-61
2023/04/11 09:29:41;;;;;;;6.60;1.55;;;;;;;9.81;67.32;96502.19;2071220;28;20212;-61
2023/04/11 09:30:54;;;;;;;3.47;1.40;;;;;;;9.90;67.85;96514.84;2072056;28;20730;-61
2023/04/11 09:31:55;;;;;;;8.10;1.63;;;;;;;10.01;66.72;96513.50;2071426;28;20318;-61
2023/04/11 09:32:57;;;;;;;8.18;2.25;;;;;;;9.85;67.41;96508.13;2071176;28;20540;-62
2023/04/11 09:33:58;;;;;;;8.55;2.00;;;;;;;10.13;66.26;96510.34;2078837;28;20217;-61
2023/04/11 09:35:22;;;;;;;4.63;1.60;;;;;;;10.52;65.48;96491.19;2078706;28;20270;-61
2023/04/11 09:36:28;;;;;;;7.32;1.80;;;;;;;10.55;65.28;96503.25;2070567;28;20206;-61
2023/04/11 09:37:43;;;;;;;10.15;1.67;;;;;;;10.57;66.50;96511.88;2070997;28;20205;-61
2023/04/11 09:38:45;;;;;;;5.13;2.08;;;;;;;10.58;66.13;96510.97;2071411;28;20193;-61
2023/04/11 09:39:57;;;;;;;7.65;1.35;;;;;;;10.50;65.97;96503.47;2070692;28;20224;-61
2023/04/11 09:41:03;;;;;;;7.57;1.27;;;;;;;10.51;66.32;96504.31;2071147;28;20601;-62
2023/04/11 09:42:26;;;;;;;6.68;1.85;;;;;;;10.25;65.68;96508.94;2072071;28;20211;-62
2023/04/11 09:43:54;;;;;;;13.05;2.13;;;;;;;10.17;65.71;96500.63;2067221;28;20805;-62
2023/04/11 09:44:56;;;;;;;9.82;1.50;;;;;;;10.05;66.28;96499.41;2068115;28;20221;-61
2023/04/11 09:46:08;;;;;;;5.35;1.45;;;;;;;10.16;66.36;96497.16;2071893;28;20770;-61
2023/04/11 09:47:10;;;;;;;6.05;1.60;;;;;;;9.86;66.21;96489.78;2073704;28;20194;-61
2023/04/11 09:48:12;;;;;;;11.70;2.45;;;;;;;9.90;67.19;96488.75;2069205;28;20232;-61
2023/04/11 09:49:13;;;;;;;7.57;1.75;;;;;;;9.92;67.00;96496.50;2068716;28;20633;-61
2023/04/11 09:50:16;;;;;;;7.28;2.08;;;;;;;9.78;67.08;96497.13;2076887;28;20190;-62
2023/04/11 09:51:18;;;;;;;6.43;1.90;;;;;;;10.02;66.96;96499.53;2079425;28;20201;-61
2023/04/11 09:52:44;;;;;;;6.32;1.50;;;;;;;10.27;66.43;96501.88;2071101;28;20199;-61
2023/04/11 09:53:46;;;;;;;11.55;1.45;;;;;;;10.05;65.26;96494.19;2070310;28;20649;-62
2023/04/11 09:54:49;;;;;;;7.57;1.50;;;;;;;9.93;64.86;96493.81;2071099;28;20249;-61
2023/04/11 09:55:51;;;;;;;5.80;1.10;;;;;;;9.73;64.00;96486.88;2071059;28;20213;-62
2023/04/11 09:56:52;;;;;;;5.43;1.48;;;;;;;9.55;65.37;96491.13;2070822;28;20190;-61
2023/04/11 09:57:54;;;;;;;11.35;1.55;;;;;;;9.50;67.38;96500.06;2070753;28;20617;-62
2023/04/11 09:58:56;;;;;;;23.83;1.98;;;;;;;9.44;68.75;96499.41;2070748;28;20202;-61
2023/04/11 10:00:13;;;;;;;5.68;1.50;;;;;;;9.45;68.05;96498.50;2070091;28;20221;-61
2023/04/11 10:01:17;;;;;;;6.82;1.65;;;;;;;9.30;69.93;96517.38;2070575;28;20279;-61
2023/04/11 10:02:19;;;;;;;9.48;1.45;;;;;;;8.95;72.25;96498.81;2069646;28;20555;-62
2023/04/11 10:03:22;;;;;;;7.00;1.67;;;;;;;8.52;73.38;96509.22;2069545;28;20232;-61
2023/04/11 10:04:26;;;;;;;7.05;1.42;;;;;;;8.38;74.74;96514.03;2070314;28;20221;-61
2023/04/11 10:05:29;;;;;;;9.63;1.80;;;;;;;8.48;75.50;96507.59;2069634;28;20284;-61
2023/04/11 10:06:37;;;;;;;4.93;1.33;;;;;;;8.34;75.73;96518.50;2069643;28;20637;-61
2023/04/11 10:07:47;;;;;;;10.77;1.63;;;;;;;8.49;76.99;96522.31;2073277;28;20263;-61
2023/04/11 10:08:50;;;;;;;7.28;1.70;;;;;;;8.53;76.83;96520.47;2071377;28;20239;-61
2023/04/11 10:09:51;;;;;;;13.60;1.75;;;;;;;8.43;75.31;96515.59;2070254;28;20327;-61
2023/04/11 10:10:55;;;;;;;5.75;1.77;;;;;;;8.62;76.77;96520.97;2071276;28;20241;-61
2023/04/11 10:11:57;;;;;;;11.23;3.00;;;;;;;8.88;76.45;96516.47;2072049;28;20731;-61
2023/04/11 10:12:58;;;;;;;12.77;2.70;;;;;;;8.94;75.21;96518.00;2071939;28;20232;-60
2023/04/11 10:14:00;;;;;;;12.15;5.07;;;;;;;9.39;75.77;96524.81;2067933;28;20873;-60
2023/04/11 10:15:07;;;;;;;6.13;1.92;;;;;;;9.34;73.67;96512.91;2065927;28;20297;-61
2023/04/11 10:16:17;;;;;;;4.22;1.30;;;;;;;9.35;71.64;96520.66;2067234;28;20206;-60
2023/04/11 10:17:20;;;;;;;8.93;1.55;;;;;;;9.78;71.93;96526.63;2067537;28;20203;-61
2023/04/11 10:18:24;;;;;;;6.78;1.50;;;;;;;9.54;69.64;96514.66;2070992;28;20652;-60
2023/04/11 10:19:26;;;;;;;12.63;1.75;;;;;;;9.44;69.52;96514.22;2071280;28;20248;-61
2023/04/11 10:20:30;;;;;;;10.73;1.63;;;;;;;9.47;70.77;96524.50;2071398;28;20229;-61
2023/04/11 10:21:31;;;;;;;9.38;2.00;;;;;;;9.67;71.27;96525.41;2070165;28;20194;-62
2023/04/11 10:22:42;;;;;;;10.50;1.77;;;;;;;10.12;69.61;96509.50;2072293;28;20197;-62
2023/04/11 10:24:06;;;;;;;12.05;1.65;;;;;;;10.60;69.45;96515.19;2070903;28;20201;-62
2023/04/11 10:25:15;;;;;;;5.32;1.30;;;;;;;10.90;67.39;96512.03;2071026;28;20252;-62
2023/04/11 10:26:16;;;;;;;6.40;1.40;;;;;;;10.93;66.47;96516.25;2070395;28;20229;-63
2023/04/11 10:27:46;;;;;;;5.30;1.50;;;;;;;11.15;65.89;96516.06;2070641;28;20209;-63
2023/04/11 10:28:48;;;;;;;5.05;1.20;;;;;;;11.42;64.92;96518.25;2070849;28;20229;-61
2023/04/11 10:29:51;;;;;;;11.60;1.83;;;;;;;11.40;63.07;96513.09;2071301;28;20225;-61
2023/04/11 10:31:03;;;;;;;7.40;1.50;;;;;;;11.46;62.25;96513.72;2067284;28;20245;-61
2023/04/11 10:32:18;;;;;;;10.10;1.55;;;;;;;11.67;62.92;96512.63;2069221;28;20240;-61
2023/04/11 10:33:20;;;;;;;12.18;1.52;;;;;;;11.38;63.10;96514.09;2074547;28;20204;-61
2023/04/11 10:34:21;;;;;;;6.20;1.30;;;;;;;11.23;61.78;96513.09;2070565;28;20310;-60
2023/04/11 10:35:23;;;;;;;12.70;2.25;;;;;;;11.15;61.90;96507.38;2070940;28;20198;-61
2023/04/11 10:36:25;;;;;;;6.88;1.95;;;;;;;11.27;61.19;96505.03;2071466;28;20345;-62
2023/04/11 10:37:33;;;;;;;15.40;1.65;;;;;;;11.40;62.37;96510.47;2074122;28;20602;-61
2023/04/11 10:38:42;;;;;;;8.93;2.05;;;;;;;11.74;61.74;96506.16;2074273;28;20247;-61
2023/04/11 10:39:52;;;;;;;11.77;1.75;;;;;;;12.07;61.44;96505.34;2068682;28;20218;-61
2023/04/11 10:41:19;;;;;;;10.10;1.70;;;;;;;11.61;60.38;96505.06;2077497;28;20205;-60
2023/04/11 10:42:30;;;;;;;3.35;1.15;;;;;;;11.77;57.09;96502.53;2075604;28;20802;-61
2023/04/11 10:43:32;;;;;;;4.05;1.30;;;;;;;11.36;57.01;96510.69;2072560;28;20220;-60
2023/04/11 10:44:33;;;;;;;6.70;1.88;;;;;;;11.08;57.92;96514.66;2071088;28;20221;-60
2023/04/11 10:45:38;;;;;;;4.28;1.25;;;;;;;10.93;58.36;96508.41;2072489;28;20330;-60
2023/04/11 10:46:45;;;;;;;9.27;1.30;;;;;;;11.15;58.70;96509.97;2072195;28;20235;-61
2023/04/11 10:47:55;;;;;;;7.65;1.33;;;;;;;11.20;57.05;96519.31;2070835;28;20209;-60
2023/04/11 10:49:02;;;;;;;6.55;1.45;;;;;;;11.65;57.02;96521.47;2073597;28;20198;-61
2023/04/11 10:50:30;;;;;;;6.43;1.38;;;;;;;11.47;56.13;96505.78;2068734;28;20236;-60
2023/04/11 10:51:32;;;;;;;5.35;1.60;;;;;;;11.27;57.25;96522.44;2070708;28;20194;-60
2023/04/11 10:52:37;;;;;;;10.27;1.58;;;;;;;11.15;57.44;96523.91;2071488;28;20209;-60
2023/04/11 10:53:39;;;;;;;15.85;1.65;;;;;;;10.80;58.20;96517.78;2072197;28;20209;-60
2023/04/11 10:54:40;;;;;;;5.25;1.65;;;;;;;10.53;58.69;96508.56;2071171;28;20225;-60
2023/04/11 10:55:47;;;;;;;11.93;2.00;;;;;;;10.52;57.36;96513.84;2071052;28;20320;-60
2023/04/11 10:56:55;;;;;;;6.10;1.77;;;;;;;10.35;57.89;96517.19;2072339;28;20206;-60
2023/04/11 10:58:08;;;;;;;7.28;1.48;;;;;;;10.67;58.75;96509.69;2071583;28;20848;-60
2023/04/11 10:59:48;;;;;;;4.70;1.40;;;;;;;10.70;58.19;96514.75;2068677;28;20294;-60
2023/04/11 11:00:52;;;;;;;7.45;1.40;;;;;;;10.66;58.92;96506.19;2058878;28;20202;-60
2023/04/11 11:01:54;;;;;;;5.50;1.40;;;;;;;10.85;58.78;96505.34;2060061;28;20297;-60
2023/04/11 11:02:56;;;;;;;6.28;1.73;;;;;;;10.89;58.17;96479.00;2064174;28;20628;-60
2023/04/11 11:03:58;;;;;;;5.40;1.45;;;;;;;11.21;57.60;96500.09;2078173;28;20825;-60
2023/04/11 11:05:00;;;;;;;7.05;1.80;;;;;;;11.84;57.97;96503.88;2071388;28;20352;-62
2023/04/11 11:06:05;;;;;;;8.25;1.60;;;;;;;11.77;56.71;96511.22;2066185;28;20704;-60
2023/04/11 11:07:11;;;;;;;11.23;1.55;;;;;;;12.14;56.97;96505.00;2070003;28;20197;-60
2023/04/11 11:08:13;;;;;;;4.68;1.35;;;;;;;12.19;56.37;96509.06;2070867;28;20266;-61
2023/04/11 11:09:27;;;;;;;20.42;7.47;;;;;;;12.07;56.37;96505.34;2067972;28;20225;-59
2023/04/11 11:11:01;;;;;;;12.68;2.65;;;;;;;12.12;55.02;96496.41;2068530;28;20197;-59
2023/04/11 11:12:10;;;;;;;6.45;1.50;;;;;;;11.52;55.28;96510.78;2074556;28;20871;-60
2023/04/11 11:13:14;;;;;;;9.93;1.67;;;;;;;11.86;54.98;96509.03;2063275;28;20281;-60
2023/04/11 11:14:28;;;;;;;7.18;1.70;;;;;;;11.72;55.13;96504.53;2069390;28;20202;-60
2023/04/11 11:15:37;;;;;;;7.75;1.52;;;;;;;11.83;54.81;96501.34;2072244;28;20234;-61
2023/04/11 11:16:39;;;;;;;4.45;1.30;;;;;;;11.84;54.58;96501.28;2071369;28;20559;-61
2023/04/11 11:17:41;;;;;;;4.03;1.27;;;;;;;12.02;55.63;96507.34;2070970;28;20202;-61
2023/04/11 11:18:45;;;;;;;6.70;1.30;;;;;;;12.17;55.33;96504.84;2069176;28;20793;-61
2023/04/11 11:19:47;;;;;;;8.20;1.35;;;;;;;12.20;55.21;96509.91;2069928;28;20217;-60
2023/04/11 11:20:53;;;;;;;11.68;1.98;;;;;;;12.02;54.93;96501.28;2071124;28;20206;-61
2023/04/11 11:21:55;;;;;;;6.05;1.35;;;;;;;11.72;55.68;96499.31;2069740;28;20700;-60
2023/04/11 11:23:04;;;;;;;7.22;1.13;;;;;;;11.43;55.05;96492.00;2070665;28;20248;-61
2023/04/11 11:24:06;;;;;;;9.60;2.20;;;;;;;11.35;56.12;96491.56;2070496;28;20197;-60
2023/04/11 11:25:08;;;;;;;14.40;2.30;;;;;;;11.41;56.46;96500.84;2071524;28;20256;-60
2023/04/11 11:26:09;;;;;;;11.95;2.65;;;;;;;11.10;56.97;96497.16;2072669;28;20217;-61
2023/04/11 11:27:21;;;;;;;9.57;1.38;;;;;;;10.85;57.79;96500.13;2071028;28;20208;-60
2023/04/11 11:28:24;;;;;;;9.85;1.75;;;;;;;11.25;58.01;96501.63;2072435;28;20205;-61
2023/04/11 11:29:36;;;;;;;8.90;1.70;;;;;;;11.42;56.93;96507.78;2072491;28;20214;-61
2023/04/11 11:30:50;;;;;;;6.55;1.20;;;;;;;11.47;57.07;96499.72;2069984;28;20197;-61
2023/04/11 11:31:56;;;;;;;9.77;1.60;;;;;;;11.35;56.45;96488.94;2070179;28;20194;-60
2023/04/11 11:32:58;;;;;;;4.85;1.30;;;;;;;11.06;56.67;96493.84;2070573;28;20206;-60
2023/04/11 11:34:00;;;;;;;7.82;1.38;;;;;;;10.92;56.75;96485.84;2071266;28;20369;-60
2023/04/11 11:35:22;;;;;;;6.43;1.40;;;;;;;11.05;55.26;96500.00;2070233;28;20728;-60
2023/04/11 11:36:25;;;;;;;5.18;1.40;;;;;;;11.31;55.95;96487.38;2068876;28;20772;-60
2023/04/11 11:37:26;;;;;;;8.63;1.73;;;;;;;11.48;55.71;96491.78;2070330;28;20402;-60
2023/04/11 11:38:29;;;;;;;5.75;1.50;;;;;;;11.49;55.67;96490.00;2068357;28;20189;-60
2023/04/11 11:39:31;;;;;;;8.40;1.95;;;;;;;11.79;55.27;96490.19;2071142;28;20226;-60
2023/04/11 11:40:32;;;;;;;5.13;1.30;;;;;;;11.37;53.92;96499.31;2070002;28;20222;-60
2023/04/11 11:41:34;;;;;;;6.38;1.10;;;;;;;10.77;55.04;96522.22;2068040;28;20744;-60
2023/04/11 11:42:35;;;;;;;11.38;1.27;;;;;;;10.80;56.24;96500.31;2067406;28;20225;-60
2023/04/11 11:43:37;;;;;;;8.80;1.38;;;;;;;10.86;56.28;96509.66;2069872;28;20198;-60
2023/04/11 11:44:39;;;;;;;7.53;1.70;;;;;;;10.84;56.40;96501.88;2071169;28;20558;-60
2023/04/11 11:45:41;;;;;;;12.27;1.50;;;;;;;11.37;55.53;96510.63;2069981;28;20224;-60
2023/04/11 11:47:11;;;;;;;6.28;1.55;;;;;;;11.22;54.73;96517.47;2070171;28;20238;-60
2023/04/11 11:48:22;;;;;;;5.65;1.48;;;;;;;11.76;54.81;96514.75;2070658;28;20263;-60
2023/04/11 11:49:24;;;;;;;5.20;1.60;;;;;;;12.22;53.33;96490.56;2071168;28;20252;-60
2023/04/11 11:50:30;;;;;;;5.85;2.15;;;;;;;11.96;54.42;96497.22;2071779;28;20243;-60
2023/04/11 11:51:41;;;;;;;14.65;3.10;;;;;;;11.56;55.47;96512.31;2070784;28;20210;-60
2023/04/11 11:52:43;;;;;;;5.55;1.55;;;;;;;11.85;54.07;96502.97;2072535;28;20201;-60
2023/04/11 11:54:03;;;;;;;8.63;2.03;;;;;;;11.65;54.71;96521.47;2070958;28;20629;-60
2023/04/11 11:55:08;;;;;;;10.68;1.75;;;;;;;11.75;55.04;96513.06;2071592;28;20225;-60
2023/04/11 11:56:13;;;;;;;4.63;1.50;;;;;;;11.73;54.69;96500.97;2070628;28;20284;-59
2023/04/11 11:57:23;;;;;;;4.07;1.30;;;;;;;11.34;55.70;96515.16;2070429;28;20205;-59
2023/04/11 11:58:26;;;;;;;8.10;2.13;;;;;;;11.33;56.42;96506.47;2070372;28;20193;-59
2023/04/11 11:59:27;;;;;;;7.60;1.80;;;;;;;11.63;55.17;96511.09;2067886;28;20222;-59
2023/04/11 12:00:33;;;;;;;7.97;3.33;;;;;;;11.62;54.66;96505.91;2069250;28;20198;-59
2023/04/11 12:01:36;;;;;;;15.13;1.60;;;;;;;11.60;54.49;96504.25;2069495;28;21003;-58
2023/04/11 12:02:39;;;;;;;7.25;1.52;;;;;;;11.47;55.10;96512.78;2071076;28;20251;-59
2023/04/11 12:03:41;;;;;;;8.93;1.40;;;;;;;11.36;55.88;96511.53;2070758;28;20258;-59
2023/04/11 12:04:43;;;;;;;6.50;1.60;;;;;;;11.20;56.04;96501.00;2069365;28;20271;-59
2023/04/11 12:05:46;;;;;;;7.38;1.48;;;;;;;11.38;54.90;96499.25;2071451;28;20202;-59
2023/04/11 12:06:47;;;;;;;5.43;1.40;;;;;;;11.26;55.65;96505.06;2069808;28;20200;-59
2023/04/11 12:07:57;;;;;;;6.32;1.38;;;;;;;11.22;56.23;96504.41;2070319;28;20243;-59
2023/04/11 12:09:16;;;;;;;14.27;1.77;;;;;;;11.09;56.98;96504.13;2070436;28;20205;-59
2023/04/11 12:10:18;;;;;;;8.40;1.48;;;;;;;11.55;56.90;96515.84;2066497;28;20251;-59
2023/04/11 12:11:20;;;;;;;4.18;1.50;;;;;;;10.92;56.12;96473.63;2069709;28;20314;-59
2023/04/11 12:12:21;;;;;;;13.35;1.63;;;;;;;11.40;56.47;96510.47;2071055;28;20224;-59
2023/04/11 12:13:26;;;;;;;5.75;1.50;;;;;;;11.43;55.90;96510.31;2069304;28;20205;-58
2023/04/11 12:14:28;;;;;;;6.30;2.20;;;;;;;11.70;55.74;96503.75;2069365;28;20223;-59
2023/04/11 12:15:34;;;;;;;12.15;1.33;;;;;;;11.80;54.60;96496.28;2070937;28;20217;-59
2023/04/11 12:16:36;;;;;;;3.65;1.10;;;;;;;11.17;53.48;96490.69;2071363;28;20202;-59
2023/04/11 12:17:39;;;;;;;10.48;1.83;;;;;;;11.38;54.08;96514.09;2071227;28;20240;-59
2023/04/11 12:18:41;;;;;;;7.38;1.35;;;;;;;11.83;53.73;96517.06;2070679;28;20204;-59
2023/04/11 12:19:42;;;;;;;6.30;1.70;;;;;;;11.82;53.44;96497.03;2070539;28;20218;-58
2023/04/11 12:20:44;;;;;;;5.75;1.23;;;;;;;11.84;52.76;96508.28;2070171;28;20205;-58
2023/04/11 12:21:45;;;;;;;6.38;1.50;;;;;;;11.89;53.97;96504.50;2068033;28;20229;-59
2023/04/11 12:22:47;;;;;;;7.97;1.52;;;;;;;11.56;53.44;96505.31;2068776;28;20194;-59
2023/04/11 12:23:48;;;;;;;13.00;1.70;;;;;;;11.47;53.39;96515.41;2067556;28;20727;-59
2023/04/11 12:25:12;;;;;;;8.77;1.85;;;;;;;11.59;53.22;96509.53;2065617;28;20218;-59
2023/04/11 12:26:14;;;;;;;8.30;1.98;;;;;;;11.38;53.03;96516.72;2069216;28;20198;-59
2023/04/11 12:27:16;;;;;;;14.48;1.92;;;;;;;11.65;52.81;96517.06;2070859;28;20648;-59
2023/04/11 12:28:17;;;;;;;3.65;1.15;;;;;;;11.42;52.71;96508.63;2070218;28;20194;-59
2023/04/11 12:29:19;;;;;;;10.23;1.80;;;;;;;11.47;53.31;96507.56;2070707;28;20206;-58
2023/04/11 12:30:20;;;;;;;8.30;1.60;;;;;;;11.87;52.98;96511.59;2071326;28;20213;-59
2023/04/11 12:31:23;;;;;;;7.57;1.70;;;;;;;11.85;51.43;96513.44;2071906;28;20202;-59
2023/04/11 12:32:26;;;;;;;5.43;1.58;;;;;;;11.67;51.66;96481.22;2071826;28;20255;-59
2023/04/11 12:33:27;;;;;;;3.72;1.30;;;;;;;11.57;51.11;96507.00;2071183;28;20203;-58
2023/04/11 12:34:29;;;;;;;6.18;1.25;;;;;;;11.16;50.44;96511.69;2071765;28;20221;-59
2023/04/11 12:35:31;;;;;;;4.13;1.50;;;;;;;11.46;51.53;96514.53;2073626;28;20197;-59
2023/04/11 12:36:35;;;;;;;7.05;1.58;;;;;;;11.60;51.52;96504.25;2073446;28;20198;-59
2023/04/11 12:37:37;;;;;;;6.50;1.50;;;;;;;11.87;51.40;96515.97;2069604;28;20209;-59
2023/04/11 12:38:39;;;;;;;5.55;1.33;;;;;;;11.72;51.03;96515.00;2069892;28;20205;-59
2023/04/11 12:39:41;;;;;;;6.32;1.00;;;;;;;11.36;50.57;96508.09;2072450;28;20225;-59
2023/04/11 12:40:42;;;;;;;5.30;1.10;;;;;;;11.15;50.43;96513.47;2072730;28;20233;-58